Huvudsida
METAR-TAF:

METAR-TAF

Flygplatser :

Kärrdals flygplats

Kärrdal, Estland

latitud: 58-59N, longitud: 022-49E, höjd: 5 m

Aktuellt väderrapport

Denna rapport gjordes för 1 timme och 55 minuter sedan, klockan 15:20 UTC
Vind 10 kt från nordost i byarna ända upp till 20 kt, varierande mellan nord och ost
Temperatur 14°C
Fuktighet 55%
Tryck 1022 hPa
Sikt 10 km eller mer
Inga moln under 1 500 m eller inga cumulonimbus

METAR: EEKA 221520Z 05010G20KT 010V090 CAVOK 14/05 Q1022

Tid: 20:15 (17:15 UTC)

Väderprognos

Denna rapport gjordes för 5 timmar och 15 minuter sedan, klockan 12:00 UTC
Prognos gäller från 22 kl. 13 UTC till 22 kl. 19 UTC
Vind 10 kt från nordost
Sikt 10 km eller mer
Inga moln under 1 500 m eller inga cumulonimbus
Blir
från 22 kl. 17 UTC till 22 kl. 19 UTC
Vind 8 kt från ost

TAF: EEKA 221200Z 2213/2219 04010KT CAVOK BECMG 2217/2219 10008KT

Aktuella väderrapporter och prognoser från 4000 flygplatser (METAR- och TAF-rapporter).

De tillgängliga stationerna syns som gula och röda prickar på kartan.

För musen över prickarna för att se namnen på stationerna.

Klicka sedan för att få väderrapporter och prognoser.

För att ändra kartan: Klicka på de gröna knapparna med ett svart kors på för att zooma in; den gröna knappen med ett streck på för att zooma ut; eller på de gröna pilarna för angränsande kartor.


METAR-TAF: